sensor_id;sensor_type;location;lat;lon;timestamp;P1;durP1;ratioP1;P2;durP2;ratioP2
58637;SDS011;54976;51.510;7.522;2024-01-16T00:02:28;28.05;;;13.52;;
58637;SDS011;54976;51.510;7.522;2024-01-16T00:05:28;27.85;;;12.75;;
58637;SDS011;54976;51.510;7.522;2024-01-16T00:08:29;27.27;;;13.13;;
58637;SDS011;54976;51.510;7.522;2024-01-16T00:11:30;26.17;;;11.38;;
58637;SDS011;54976;51.510;7.522;2024-01-16T00:14:30;35.00;;;13.43;;
58637;SDS011;54976;51.510;7.522;2024-01-16T00:17:34;29.95;;;11.98;;
58637;SDS011;54976;51.510;7.522;2024-01-16T00:20:35;23.52;;;12.50;;
58637;SDS011;54976;51.510;7.522;2024-01-16T00:23:36;32.47;;;12.93;;
58637;SDS011;54976;51.510;7.522;2024-01-16T00:26:36;18.55;;;10.32;;
58637;SDS011;54976;51.510;7.522;2024-01-16T00:29:37;27.08;;;10.77;;
58637;SDS011;54976;51.510;7.522;2024-01-16T00:32:41;28.60;;;10.32;;
58637;SDS011;54976;51.510;7.522;2024-01-16T00:35:42;29.88;;;11.10;;
58637;SDS011;54976;51.510;7.522;2024-01-16T00:38:42;21.45;;;11.38;;
58637;SDS011;54976;51.510;7.522;2024-01-16T00:41:43;27.50;;;10.20;;
58637;SDS011;54976;51.510;7.522;2024-01-16T00:44:44;22.00;;;8.90;;
58637;SDS011;54976;51.510;7.522;2024-01-16T00:47:45;21.42;;;10.10;;
58637;SDS011;54976;51.510;7.522;2024-01-16T00:50:46;22.08;;;11.18;;
58637;SDS011;54976;51.510;7.522;2024-01-16T00:53:48;23.60;;;11.15;;
58637;SDS011;54976;51.510;7.522;2024-01-16T00:56:49;28.65;;;11.95;;
58637;SDS011;54976;51.510;7.522;2024-01-16T00:59:50;18.48;;;9.98;;
58637;SDS011;54976;51.510;7.522;2024-01-16T01:02:50;24.73;;;10.73;;
58637;SDS011;54976;51.510;7.522;2024-01-16T01:05:51;23.63;;;12.15;;
58637;SDS011;54976;51.510;7.522;2024-01-16T01:08:52;28.23;;;12.13;;
58637;SDS011;54976;51.510;7.522;2024-01-16T01:11:52;30.08;;;11.48;;
58637;SDS011;54976;51.510;7.522;2024-01-16T01:14:53;18.13;;;9.52;;
58637;SDS011;54976;51.510;7.522;2024-01-16T01:17:53;27.85;;;11.73;;
58637;SDS011;54976;51.510;7.522;2024-01-16T01:20:54;16.67;;;8.13;;
58637;SDS011;54976;51.510;7.522;2024-01-16T01:23:55;21.95;;;11.02;;
58637;SDS011;54976;51.510;7.522;2024-01-16T01:26:56;26.50;;;10.48;;
58637;SDS011;54976;51.510;7.522;2024-01-16T01:29:58;19.10;;;8.65;;
58637;SDS011;54976;51.510;7.522;2024-01-16T01:32:58;21.73;;;11.35;;
58637;SDS011;54976;51.510;7.522;2024-01-16T01:35:59;23.13;;;10.75;;
58637;SDS011;54976;51.510;7.522;2024-01-16T01:38:59;27.13;;;11.52;;
58637;SDS011;54976;51.510;7.522;2024-01-16T01:42:00;23.70;;;10.80;;
58637;SDS011;54976;51.510;7.522;2024-01-16T01:45:01;30.17;;;10.23;;
58637;SDS011;54976;51.510;7.522;2024-01-16T01:48:01;22.02;;;9.65;;
58637;SDS011;54976;51.510;7.522;2024-01-16T01:51:07;25.90;;;10.77;;
58637;SDS011;54976;51.510;7.522;2024-01-16T01:54:12;23.98;;;10.45;;
58637;SDS011;54976;51.510;7.522;2024-01-16T01:57:15;20.88;;;10.40;;
58637;SDS011;54976;51.510;7.522;2024-01-16T02:00:16;19.63;;;10.27;;
58637;SDS011;54976;51.510;7.522;2024-01-16T02:03:18;19.13;;;9.27;;
58637;SDS011;54976;51.510;7.522;2024-01-16T02:06:21;21.98;;;11.25;;
58637;SDS011;54976;51.510;7.522;2024-01-16T02:09:22;26.35;;;10.07;;
58637;SDS011;54976;51.510;7.522;2024-01-16T02:12:23;17.85;;;9.73;;
58637;SDS011;54976;51.510;7.522;2024-01-16T02:15:23;22.83;;;9.45;;
58637;SDS011;54976;51.510;7.522;2024-01-16T02:18:24;21.52;;;9.50;;
58637;SDS011;54976;51.510;7.522;2024-01-16T02:21:25;17.27;;;8.48;;
58637;SDS011;54976;51.510;7.522;2024-01-16T02:24:28;26.02;;;9.48;;
58637;SDS011;54976;51.510;7.522;2024-01-16T02:27:29;21.88;;;9.90;;
58637;SDS011;54976;51.510;7.522;2024-01-16T02:30:30;15.27;;;7.47;;
58637;SDS011;54976;51.510;7.522;2024-01-16T02:33:30;15.35;;;6.60;;
58637;SDS011;54976;51.510;7.522;2024-01-16T02:36:31;25.75;;;10.77;;
58637;SDS011;54976;51.510;7.522;2024-01-16T02:39:32;21.83;;;10.45;;
58637;SDS011;54976;51.510;7.522;2024-01-16T02:42:33;30.75;;;10.70;;
58637;SDS011;54976;51.510;7.522;2024-01-16T02:45:34;20.63;;;9.98;;
58637;SDS011;54976;51.510;7.522;2024-01-16T02:48:35;22.02;;;9.35;;
58637;SDS011;54976;51.510;7.522;2024-01-16T02:51:36;22.02;;;9.77;;
58637;SDS011;54976;51.510;7.522;2024-01-16T02:54:36;22.50;;;9.45;;
58637;SDS011;54976;51.510;7.522;2024-01-16T02:57:37;16.88;;;9.02;;
58637;SDS011;54976;51.510;7.522;2024-01-16T03:00:37;25.20;;;9.90;;
58637;SDS011;54976;51.510;7.522;2024-01-16T03:03:38;23.77;;;9.30;;
58637;SDS011;54976;51.510;7.522;2024-01-16T03:06:39;17.83;;;8.23;;
58637;SDS011;54976;51.510;7.522;2024-01-16T03:09:40;22.45;;;9.40;;
58637;SDS011;54976;51.510;7.522;2024-01-16T03:12:41;18.05;;;9.30;;
58637;SDS011;54976;51.510;7.522;2024-01-16T03:15:41;17.45;;;8.40;;
58637;SDS011;54976;51.510;7.522;2024-01-16T03:18:42;20.27;;;8.48;;
58637;SDS011;54976;51.510;7.522;2024-01-16T03:21:42;21.00;;;9.15;;
58637;SDS011;54976;51.510;7.522;2024-01-16T03:24:43;29.67;;;9.38;;
58637;SDS011;54976;51.510;7.522;2024-01-16T03:27:44;20.75;;;8.60;;
58637;SDS011;54976;51.510;7.522;2024-01-16T03:30:44;24.27;;;8.93;;
58637;SDS011;54976;51.510;7.522;2024-01-16T03:33:45;20.27;;;9.45;;
58637;SDS011;54976;51.510;7.522;2024-01-16T03:36:45;25.55;;;10.20;;
58637;SDS011;54976;51.510;7.522;2024-01-16T03:39:46;18.20;;;8.85;;
58637;SDS011;54976;51.510;7.522;2024-01-16T03:42:47;18.02;;;9.43;;
58637;SDS011;54976;51.510;7.522;2024-01-16T03:45:47;15.73;;;9.10;;
58637;SDS011;54976;51.510;7.522;2024-01-16T03:48:48;18.83;;;9.23;;
58637;SDS011;54976;51.510;7.522;2024-01-16T03:51:49;13.95;;;7.47;;
58637;SDS011;54976;51.510;7.522;2024-01-16T03:54:49;17.98;;;8.88;;
58637;SDS011;54976;51.510;7.522;2024-01-16T03:57:50;19.33;;;9.43;;
58637;SDS011;54976;51.510;7.522;2024-01-16T04:00:51;13.85;;;8.27;;
58637;SDS011;54976;51.510;7.522;2024-01-16T04:03:53;17.40;;;9.32;;
58637;SDS011;54976;51.510;7.522;2024-01-16T04:06:53;17.60;;;8.93;;
58637;SDS011;54976;51.510;7.522;2024-01-16T04:09:54;16.98;;;8.63;;
58637;SDS011;54976;51.510;7.522;2024-01-16T04:12:55;20.17;;;9.40;;
58637;SDS011;54976;51.510;7.522;2024-01-16T04:15:55;25.40;;;8.65;;
58637;SDS011;54976;51.510;7.522;2024-01-16T04:18:56;17.80;;;10.32;;
58637;SDS011;54976;51.510;7.522;2024-01-16T04:21:57;23.98;;;10.50;;
58637;SDS011;54976;51.510;7.522;2024-01-16T04:24:57;21.15;;;11.52;;
58637;SDS011;54976;51.510;7.522;2024-01-16T04:27:58;28.65;;;13.50;;
58637;SDS011;54976;51.510;7.522;2024-01-16T04:31:00;30.27;;;14.43;;
58637;SDS011;54976;51.510;7.522;2024-01-16T04:34:01;32.15;;;14.73;;
58637;SDS011;54976;51.510;7.522;2024-01-16T04:37:02;24.60;;;13.32;;
58637;SDS011;54976;51.510;7.522;2024-01-16T04:40:03;26.30;;;13.23;;
58637;SDS011;54976;51.510;7.522;2024-01-16T04:43:05;25.98;;;12.73;;
58637;SDS011;54976;51.510;7.522;2024-01-16T04:46:06;28.95;;;14.32;;
58637;SDS011;54976;51.510;7.522;2024-01-16T04:49:06;27.23;;;13.70;;
58637;SDS011;54976;51.510;7.522;2024-01-16T04:52:07;35.38;;;14.60;;
58637;SDS011;54976;51.510;7.522;2024-01-16T04:55:07;32.28;;;14.10;;
58637;SDS011;54976;51.510;7.522;2024-01-16T04:58:08;34.38;;;15.93;;
58637;SDS011;54976;51.510;7.522;2024-01-16T05:01:09;27.83;;;14.57;;
58637;SDS011;54976;51.510;7.522;2024-01-16T05:04:09;26.35;;;14.45;;
58637;SDS011;54976;51.510;7.522;2024-01-16T05:07:10;24.48;;;12.95;;
58637;SDS011;54976;51.510;7.522;2024-01-16T05:10:11;30.08;;;14.13;;
58637;SDS011;54976;51.510;7.522;2024-01-16T05:13:12;34.35;;;14.52;;
58637;SDS011;54976;51.510;7.522;2024-01-16T05:16:13;30.25;;;13.48;;
58637;SDS011;54976;51.510;7.522;2024-01-16T05:19:14;28.27;;;13.30;;
58637;SDS011;54976;51.510;7.522;2024-01-16T05:22:15;28.73;;;12.95;;
58637;SDS011;54976;51.510;7.522;2024-01-16T05:25:15;27.83;;;13.65;;
58637;SDS011;54976;51.510;7.522;2024-01-16T05:28:17;27.45;;;12.98;;
58637;SDS011;54976;51.510;7.522;2024-01-16T05:31:18;26.02;;;12.38;;
58637;SDS011;54976;51.510;7.522;2024-01-16T05:34:19;25.15;;;11.68;;
58637;SDS011;54976;51.510;7.522;2024-01-16T05:37:20;23.02;;;10.27;;
58637;SDS011;54976;51.510;7.522;2024-01-16T05:40:21;32.05;;;12.60;;
58637;SDS011;54976;51.510;7.522;2024-01-16T05:43:22;23.83;;;13.13;;
58637;SDS011;54976;51.510;7.522;2024-01-16T05:46:22;29.58;;;13.98;;
58637;SDS011;54976;51.510;7.522;2024-01-16T05:49:23;26.70;;;13.43;;
58637;SDS011;54976;51.510;7.522;2024-01-16T05:52:24;28.70;;;13.13;;
58637;SDS011;54976;51.510;7.522;2024-01-16T05:55:24;23.10;;;11.88;;
58637;SDS011;54976;51.510;7.522;2024-01-16T05:58:25;30.20;;;14.18;;
58637;SDS011;54976;51.510;7.522;2024-01-16T06:01:25;27.02;;;12.95;;
58637;SDS011;54976;51.510;7.522;2024-01-16T06:04:27;25.45;;;11.43;;
58637;SDS011;54976;51.510;7.522;2024-01-16T06:07:28;21.35;;;11.77;;
58637;SDS011;54976;51.510;7.522;2024-01-16T06:10:28;21.92;;;11.55;;
58637;SDS011;54976;51.510;7.522;2024-01-16T06:13:29;30.50;;;12.63;;
58637;SDS011;54976;51.510;7.522;2024-01-16T06:16:31;22.45;;;10.00;;
58637;SDS011;54976;51.510;7.522;2024-01-16T06:19:32;21.05;;;11.55;;
58637;SDS011;54976;51.510;7.522;2024-01-16T06:22:33;20.30;;;10.63;;
58637;SDS011;54976;51.510;7.522;2024-01-16T06:25:33;20.05;;;10.48;;
58637;SDS011;54976;51.510;7.522;2024-01-16T06:28:34;12.70;;;7.88;;
58637;SDS011;54976;51.510;7.522;2024-01-16T06:31:35;15.00;;;9.35;;
58637;SDS011;54976;51.510;7.522;2024-01-16T06:34:35;13.65;;;7.90;;
58637;SDS011;54976;51.510;7.522;2024-01-16T06:37:36;17.52;;;7.50;;
58637;SDS011;54976;51.510;7.522;2024-01-16T06:40:37;17.67;;;7.70;;
58637;SDS011;54976;51.510;7.522;2024-01-16T06:43:38;15.45;;;6.72;;
58637;SDS011;54976;51.510;7.522;2024-01-16T06:46:39;18.30;;;7.05;;
58637;SDS011;54976;51.510;7.522;2024-01-16T06:49:40;15.30;;;6.57;;
58637;SDS011;54976;51.510;7.522;2024-01-16T06:52:40;15.73;;;7.10;;
58637;SDS011;54976;51.510;7.522;2024-01-16T06:55:41;14.23;;;5.65;;
58637;SDS011;54976;51.510;7.522;2024-01-16T06:58:41;13.50;;;6.90;;
58637;SDS011;54976;51.510;7.522;2024-01-16T07:01:42;11.20;;;6.40;;
58637;SDS011;54976;51.510;7.522;2024-01-16T07:04:43;18.95;;;7.50;;
58637;SDS011;54976;51.510;7.522;2024-01-16T07:07:43;14.15;;;7.43;;
58637;SDS011;54976;51.510;7.522;2024-01-16T07:10:45;16.85;;;8.82;;
58637;SDS011;54976;51.510;7.522;2024-01-16T07:13:46;20.35;;;10.40;;
58637;SDS011;54976;51.510;7.522;2024-01-16T07:16:46;19.67;;;10.63;;
58637;SDS011;54976;51.510;7.522;2024-01-16T07:19:47;22.27;;;12.43;;
58637;SDS011;54976;51.510;7.522;2024-01-16T07:22:47;22.73;;;12.18;;
58637;SDS011;54976;51.510;7.522;2024-01-16T07:25:48;22.27;;;12.32;;
58637;SDS011;54976;51.510;7.522;2024-01-16T07:28:49;25.20;;;13.60;;
58637;SDS011;54976;51.510;7.522;2024-01-16T07:31:49;31.17;;;13.57;;
58637;SDS011;54976;51.510;7.522;2024-01-16T07:34:50;22.05;;;13.23;;
58637;SDS011;54976;51.510;7.522;2024-01-16T07:37:52;35.28;;;13.98;;
58637;SDS011;54976;51.510;7.522;2024-01-16T07:40:53;26.35;;;12.93;;
58637;SDS011;54976;51.510;7.522;2024-01-16T07:43:54;25.63;;;13.05;;
58637;SDS011;54976;51.510;7.522;2024-01-16T07:46:54;39.17;;;14.13;;
58637;SDS011;54976;51.510;7.522;2024-01-16T07:49:55;20.75;;;12.18;;
58637;SDS011;54976;51.510;7.522;2024-01-16T07:52:55;30.70;;;13.18;;
58637;SDS011;54976;51.510;7.522;2024-01-16T07:55:56;18.40;;;10.27;;
58637;SDS011;54976;51.510;7.522;2024-01-16T07:58:57;28.35;;;12.60;;
58637;SDS011;54976;51.510;7.522;2024-01-16T08:01:57;33.13;;;12.45;;
58637;SDS011;54976;51.510;7.522;2024-01-16T08:04:58;23.40;;;11.15;;
58637;SDS011;54976;51.510;7.522;2024-01-16T08:07:59;22.92;;;9.80;;
58637;SDS011;54976;51.510;7.522;2024-01-16T08:10:59;20.60;;;10.27;;
58637;SDS011;54976;51.510;7.522;2024-01-16T08:14:00;21.52;;;8.40;;
58637;SDS011;54976;51.510;7.522;2024-01-16T08:17:01;19.63;;;7.72;;
58637;SDS011;54976;51.510;7.522;2024-01-16T08:20:01;23.00;;;9.60;;
58637;SDS011;54976;51.510;7.522;2024-01-16T08:23:03;17.35;;;8.43;;
58637;SDS011;54976;51.510;7.522;2024-01-16T08:26:04;13.88;;;6.68;;
58637;SDS011;54976;51.510;7.522;2024-01-16T08:29:05;17.92;;;7.97;;
58637;SDS011;54976;51.510;7.522;2024-01-16T08:32:05;20.52;;;7.78;;
58637;SDS011;54976;51.510;7.522;2024-01-16T08:35:06;17.50;;;6.95;;
58637;SDS011;54976;51.510;7.522;2024-01-16T08:38:07;20.65;;;6.60;;
58637;SDS011;54976;51.510;7.522;2024-01-16T08:41:07;15.88;;;5.30;;
58637;SDS011;54976;51.510;7.522;2024-01-16T08:44:08;16.73;;;5.90;;
58637;SDS011;54976;51.510;7.522;2024-01-16T08:47:09;14.63;;;5.80;;
58637;SDS011;54976;51.510;7.522;2024-01-16T08:50:10;12.30;;;5.32;;
58637;SDS011;54976;51.510;7.522;2024-01-16T08:53:10;25.70;;;5.85;;
58637;SDS011;54976;51.510;7.522;2024-01-16T08:56:11;14.60;;;4.85;;
58637;SDS011;54976;51.510;7.522;2024-01-16T08:59:12;10.23;;;4.50;;
58637;SDS011;54976;51.510;7.522;2024-01-16T09:02:12;12.68;;;5.03;;
58637;SDS011;54976;51.510;7.522;2024-01-16T09:05:13;11.60;;;4.10;;
58637;SDS011;54976;51.510;7.522;2024-01-16T09:08:14;16.52;;;3.90;;
58637;SDS011;54976;51.510;7.522;2024-01-16T09:11:15;17.67;;;4.22;;
58637;SDS011;54976;51.510;7.522;2024-01-16T09:14:15;13.15;;;4.68;;
58637;SDS011;54976;51.510;7.522;2024-01-16T09:17:16;12.18;;;4.13;;
58637;SDS011;54976;51.510;7.522;2024-01-16T09:20:17;15.05;;;3.75;;
58637;SDS011;54976;51.510;7.522;2024-01-16T09:23:17;11.93;;;3.00;;
58637;SDS011;54976;51.510;7.522;2024-01-16T09:26:18;8.35;;;2.65;;
58637;SDS011;54976;51.510;7.522;2024-01-16T09:29:19;7.03;;;2.13;;
58637;SDS011;54976;51.510;7.522;2024-01-16T09:32:20;8.45;;;2.95;;
58637;SDS011;54976;51.510;7.522;2024-01-16T09:35:21;10.95;;;2.70;;
58637;SDS011;54976;51.510;7.522;2024-01-16T09:38:22;13.57;;;3.15;;
58637;SDS011;54976;51.510;7.522;2024-01-16T09:41:22;12.65;;;2.90;;
58637;SDS011;54976;51.510;7.522;2024-01-16T09:44:23;9.85;;;3.03;;
58637;SDS011;54976;51.510;7.522;2024-01-16T09:47:24;12.20;;;2.50;;
58637;SDS011;54976;51.510;7.522;2024-01-16T09:50:25;6.07;;;2.17;;
58637;SDS011;54976;51.510;7.522;2024-01-16T09:53:25;7.70;;;2.35;;
58637;SDS011;54976;51.510;7.522;2024-01-16T09:56:26;10.77;;;2.20;;
58637;SDS011;54976;51.510;7.522;2024-01-16T09:59:29;10.15;;;2.35;;
58637;SDS011;54976;51.510;7.522;2024-01-16T10:02:32;11.55;;;2.45;;
58637;SDS011;54976;51.510;7.522;2024-01-16T10:05:33;4.95;;;2.20;;
58637;SDS011;54976;51.510;7.522;2024-01-16T10:08:34;9.63;;;2.45;;
58637;SDS011;54976;51.510;7.522;2024-01-16T10:11:34;5.85;;;1.98;;
58637;SDS011;54976;51.510;7.522;2024-01-16T10:14:36;12.93;;;2.72;;
58637;SDS011;54976;51.510;7.522;2024-01-16T10:17:38;8.40;;;2.78;;
58637;SDS011;54976;51.510;7.522;2024-01-16T10:20:40;12.07;;;2.55;;
58637;SDS011;54976;51.510;7.522;2024-01-16T10:23:41;8.88;;;1.90;;
58637;SDS011;54976;51.510;7.522;2024-01-16T10:26:41;5.93;;;1.95;;
58637;SDS011;54976;51.510;7.522;2024-01-16T10:29:54;9.93;;;2.20;;
58637;SDS011;54976;51.510;7.522;2024-01-16T10:33:00;8.63;;;2.00;;
58637;SDS011;54976;51.510;7.522;2024-01-16T10:36:15;17.70;;;2.75;;
58637;SDS011;54976;51.510;7.522;2024-01-16T10:39:18;6.13;;;1.90;;
58637;SDS011;54976;51.510;7.522;2024-01-16T10:42:19;7.60;;;2.47;;
58637;SDS011;54976;51.510;7.522;2024-01-16T10:45:20;4.85;;;1.75;;
58637;SDS011;54976;51.510;7.522;2024-01-16T10:48:22;16.73;;;2.85;;
58637;SDS011;54976;51.510;7.522;2024-01-16T10:51:22;6.43;;;1.83;;
58637;SDS011;54976;51.510;7.522;2024-01-16T10:54:25;12.40;;;2.78;;
58637;SDS011;54976;51.510;7.522;2024-01-16T10:57:25;9.73;;;2.60;;
58637;SDS011;54976;51.510;7.522;2024-01-16T11:00:28;14.63;;;2.88;;
58637;SDS011;54976;51.510;7.522;2024-01-16T11:03:49;13.57;;;2.73;;
58637;SDS011;54976;51.510;7.522;2024-01-16T11:06:54;12.23;;;2.60;;
58637;SDS011;54976;51.510;7.522;2024-01-16T11:09:55;10.05;;;2.50;;
58637;SDS011;54976;51.510;7.522;2024-01-16T11:12:59;6.70;;;2.05;;
58637;SDS011;54976;51.510;7.522;2024-01-16T11:16:04;7.78;;;2.35;;
58637;SDS011;54976;51.510;7.522;2024-01-16T11:19:05;9.18;;;2.97;;
58637;SDS011;54976;51.510;7.522;2024-01-16T11:22:08;12.80;;;2.20;;
58637;SDS011;54976;51.510;7.522;2024-01-16T11:25:14;13.90;;;2.97;;
58637;SDS011;54976;51.510;7.522;2024-01-16T11:28:15;11.68;;;2.20;;
58637;SDS011;54976;51.510;7.522;2024-01-16T11:31:32;10.82;;;2.47;;
58637;SDS011;54976;51.510;7.522;2024-01-16T11:37:41;9.98;;;2.30;;
58637;SDS011;54976;51.510;7.522;2024-01-16T11:40:43;8.45;;;2.03;;
58637;SDS011;54976;51.510;7.522;2024-01-16T11:43:43;11.02;;;2.35;;
58637;SDS011;54976;51.510;7.522;2024-01-16T11:46:59;13.18;;;2.60;;
58637;SDS011;54976;51.510;7.522;2024-01-16T11:50:11;8.27;;;2.13;;
58637;SDS011;54976;51.510;7.522;2024-01-16T11:57:36;6.57;;;2.42;;
58637;SDS011;54976;51.510;7.522;2024-01-16T12:00:22;14.80;;;2.70;;
58637;SDS011;54976;51.510;7.522;2024-01-16T12:03:27;15.32;;;3.22;;
58637;SDS011;54976;51.510;7.522;2024-01-16T12:06:28;12.02;;;3.03;;
58637;SDS011;54976;51.510;7.522;2024-01-16T12:09:29;7.75;;;2.50;;
58637;SDS011;54976;51.510;7.522;2024-01-16T12:12:29;8.55;;;2.58;;
58637;SDS011;54976;51.510;7.522;2024-01-16T12:15:30;8.77;;;2.53;;
58637;SDS011;54976;51.510;7.522;2024-01-16T12:18:31;8.57;;;2.63;;
58637;SDS011;54976;51.510;7.522;2024-01-16T12:21:33;8.20;;;2.83;;
58637;SDS011;54976;51.510;7.522;2024-01-16T12:24:57;13.23;;;2.83;;
58637;SDS011;54976;51.510;7.522;2024-01-16T12:27:59;17.38;;;3.58;;
58637;SDS011;54976;51.510;7.522;2024-01-16T12:31:10;13.85;;;3.60;;
58637;SDS011;54976;51.510;7.522;2024-01-16T12:34:21;10.50;;;3.17;;
58637;SDS011;54976;51.510;7.522;2024-01-16T12:37:22;7.43;;;2.70;;
58637;SDS011;54976;51.510;7.522;2024-01-16T12:40:23;7.38;;;2.85;;
58637;SDS011;54976;51.510;7.522;2024-01-16T12:43:24;9.50;;;3.45;;
58637;SDS011;54976;51.510;7.522;2024-01-16T12:46:24;11.80;;;3.25;;
58637;SDS011;54976;51.510;7.522;2024-01-16T12:49:25;12.52;;;3.08;;
58637;SDS011;54976;51.510;7.522;2024-01-16T12:52:25;7.93;;;2.78;;
58637;SDS011;54976;51.510;7.522;2024-01-16T12:55:27;7.07;;;2.15;;
58637;SDS011;54976;51.510;7.522;2024-01-16T12:58:34;6.85;;;2.85;;
58637;SDS011;54976;51.510;7.522;2024-01-16T13:01:36;6.68;;;2.47;;
58637;SDS011;54976;51.510;7.522;2024-01-16T13:04:39;7.28;;;2.55;;
58637;SDS011;54976;51.510;7.522;2024-01-16T13:07:39;8.27;;;2.28;;
58637;SDS011;54976;51.510;7.522;2024-01-16T13:10:40;11.40;;;2.78;;
58637;SDS011;54976;51.510;7.522;2024-01-16T13:13:41;10.75;;;2.78;;
58637;SDS011;54976;51.510;7.522;2024-01-16T13:16:41;8.85;;;3.03;;
58637;SDS011;54976;51.510;7.522;2024-01-16T13:19:42;11.25;;;2.78;;
58637;SDS011;54976;51.510;7.522;2024-01-16T13:22:43;10.50;;;2.95;;
58637;SDS011;54976;51.510;7.522;2024-01-16T13:25:44;12.40;;;3.03;;
58637;SDS011;54976;51.510;7.522;2024-01-16T13:28:48;15.27;;;3.03;;
58637;SDS011;54976;51.510;7.522;2024-01-16T13:31:50;13.05;;;3.15;;
58637;SDS011;54976;51.510;7.522;2024-01-16T13:34:55;6.87;;;2.67;;
58637;SDS011;54976;51.510;7.522;2024-01-16T13:37:55;10.13;;;3.22;;
58637;SDS011;54976;51.510;7.522;2024-01-16T13:40:56;7.82;;;2.92;;
58637;SDS011;54976;51.510;7.522;2024-01-16T13:43:56;11.68;;;3.63;;
58637;SDS011;54976;51.510;7.522;2024-01-16T13:46:57;17.58;;;3.25;;
58637;SDS011;54976;51.510;7.522;2024-01-16T13:49:57;10.07;;;2.90;;
58637;SDS011;54976;51.510;7.522;2024-01-16T13:52:58;7.47;;;2.65;;
58637;SDS011;54976;51.510;7.522;2024-01-16T13:56:00;11.43;;;3.90;;
58637;SDS011;54976;51.510;7.522;2024-01-16T13:59:00;14.77;;;4.13;;
58637;SDS011;54976;51.510;7.522;2024-01-16T14:02:02;8.45;;;2.92;;
58637;SDS011;54976;51.510;7.522;2024-01-16T14:05:03;7.35;;;2.95;;
58637;SDS011;54976;51.510;7.522;2024-01-16T14:08:05;9.38;;;3.30;;
58637;SDS011;54976;51.510;7.522;2024-01-16T14:11:06;5.55;;;2.70;;
58637;SDS011;54976;51.510;7.522;2024-01-16T14:14:07;12.50;;;3.08;;
58637;SDS011;54976;51.510;7.522;2024-01-16T14:17:07;8.40;;;3.00;;
58637;SDS011;54976;51.510;7.522;2024-01-16T14:20:10;9.57;;;3.22;;
58637;SDS011;54976;51.510;7.522;2024-01-16T14:23:11;8.55;;;3.50;;
58637;SDS011;54976;51.510;7.522;2024-01-16T14:26:12;12.00;;;3.08;;
58637;SDS011;54976;51.510;7.522;2024-01-16T14:29:13;9.50;;;3.35;;
58637;SDS011;54976;51.510;7.522;2024-01-16T14:32:13;11.93;;;3.50;;
58637;SDS011;54976;51.510;7.522;2024-01-16T14:35:14;6.72;;;3.25;;
58637;SDS011;54976;51.510;7.522;2024-01-16T14:38:17;12.27;;;3.40;;
58637;SDS011;54976;51.510;7.522;2024-01-16T14:41:17;9.80;;;3.53;;
58637;SDS011;54976;51.510;7.522;2024-01-16T14:44:18;6.43;;;3.10;;
58637;SDS011;54976;51.510;7.522;2024-01-16T14:47:19;12.55;;;3.55;;
58637;SDS011;54976;51.510;7.522;2024-01-16T14:50:20;10.85;;;3.20;;
58637;SDS011;54976;51.510;7.522;2024-01-16T14:53:21;9.90;;;3.50;;
58637;SDS011;54976;51.510;7.522;2024-01-16T14:56:22;10.35;;;3.35;;
58637;SDS011;54976;51.510;7.522;2024-01-16T14:59:24;7.00;;;2.92;;
58637;SDS011;54976;51.510;7.522;2024-01-16T15:02:24;12.25;;;3.30;;
58637;SDS011;54976;51.510;7.522;2024-01-16T15:05:25;9.93;;;3.45;;
58637;SDS011;54976;51.510;7.522;2024-01-16T15:08:26;12.85;;;3.97;;
58637;SDS011;54976;51.510;7.522;2024-01-16T15:11:28;8.95;;;3.90;;
58637;SDS011;54976;51.510;7.522;2024-01-16T15:14:29;10.40;;;3.35;;
58637;SDS011;54976;51.510;7.522;2024-01-16T15:17:29;14.38;;;3.70;;
58637;SDS011;54976;51.510;7.522;2024-01-16T15:20:30;11.18;;;3.88;;
58637;SDS011;54976;51.510;7.522;2024-01-16T15:23:30;8.55;;;3.58;;
58637;SDS011;54976;51.510;7.522;2024-01-16T15:26:31;17.88;;;4.30;;
58637;SDS011;54976;51.510;7.522;2024-01-16T15:29:31;11.13;;;3.72;;
58637;SDS011;54976;51.510;7.522;2024-01-16T15:32:32;7.63;;;3.83;;
58637;SDS011;54976;51.510;7.522;2024-01-16T15:35:33;14.55;;;4.50;;
58637;SDS011;54976;51.510;7.522;2024-01-16T15:38:33;17.90;;;6.15;;
58637;SDS011;54976;51.510;7.522;2024-01-16T15:41:34;9.88;;;3.83;;
58637;SDS011;54976;51.510;7.522;2024-01-16T15:44:35;16.73;;;4.07;;
58637;SDS011;54976;51.510;7.522;2024-01-16T15:47:36;12.30;;;4.32;;
58637;SDS011;54976;51.510;7.522;2024-01-16T15:50:36;12.45;;;4.45;;
58637;SDS011;54976;51.510;7.522;2024-01-16T15:53:39;12.77;;;4.78;;
58637;SDS011;54976;51.510;7.522;2024-01-16T15:56:39;12.50;;;4.70;;
58637;SDS011;54976;51.510;7.522;2024-01-16T15:59:40;16.38;;;4.22;;
58637;SDS011;54976;51.510;7.522;2024-01-16T16:02:41;11.25;;;3.88;;
58637;SDS011;54976;51.510;7.522;2024-01-16T16:05:46;14.75;;;4.63;;
58637;SDS011;54976;51.510;7.522;2024-01-16T16:08:46;10.35;;;5.00;;
58637;SDS011;54976;51.510;7.522;2024-01-16T16:11:47;21.40;;;5.75;;
58637;SDS011;54976;51.510;7.522;2024-01-16T16:14:49;13.52;;;4.72;;
58637;SDS011;54976;51.510;7.522;2024-01-16T16:20:50;16.15;;;4.65;;
58637;SDS011;54976;51.510;7.522;2024-01-16T16:23:51;11.52;;;4.57;;
58637;SDS011;54976;51.510;7.522;2024-01-16T16:26:52;12.57;;;4.47;;
58637;SDS011;54976;51.510;7.522;2024-01-16T16:29:54;17.73;;;5.85;;
58637;SDS011;54976;51.510;7.522;2024-01-16T16:32:55;10.32;;;4.80;;
58637;SDS011;54976;51.510;7.522;2024-01-16T16:35:56;13.70;;;5.60;;
58637;SDS011;54976;51.510;7.522;2024-01-16T16:38:57;15.75;;;5.28;;
58637;SDS011;54976;51.510;7.522;2024-01-16T16:41:59;16.27;;;4.97;;
58637;SDS011;54976;51.510;7.522;2024-01-16T16:45:00;16.85;;;5.40;;
58637;SDS011;54976;51.510;7.522;2024-01-16T16:48:01;14.60;;;5.15;;
58637;SDS011;54976;51.510;7.522;2024-01-16T16:51:02;18.88;;;5.53;;
58637;SDS011;54976;51.510;7.522;2024-01-16T16:54:02;17.02;;;5.50;;
58637;SDS011;54976;51.510;7.522;2024-01-16T16:57:03;11.50;;;4.88;;
58637;SDS011;54976;51.510;7.522;2024-01-16T17:00:04;16.33;;;5.93;;
58637;SDS011;54976;51.510;7.522;2024-01-16T17:03:06;10.65;;;4.60;;
58637;SDS011;54976;51.510;7.522;2024-01-16T17:06:08;12.73;;;5.38;;
58637;SDS011;54976;51.510;7.522;2024-01-16T17:09:08;22.58;;;6.18;;
58637;SDS011;54976;51.510;7.522;2024-01-16T17:12:11;12.32;;;6.13;;
58637;SDS011;54976;51.510;7.522;2024-01-16T17:15:13;14.38;;;5.63;;
58637;SDS011;54976;51.510;7.522;2024-01-16T17:18:14;14.27;;;5.07;;
58637;SDS011;54976;51.510;7.522;2024-01-16T17:21:15;23.27;;;9.05;;
58637;SDS011;54976;51.510;7.522;2024-01-16T17:24:16;18.33;;;6.78;;
58637;SDS011;54976;51.510;7.522;2024-01-16T17:27:16;18.05;;;5.93;;
58637;SDS011;54976;51.510;7.522;2024-01-16T17:30:17;13.68;;;5.63;;
58637;SDS011;54976;51.510;7.522;2024-01-16T17:33:18;11.70;;;4.38;;
58637;SDS011;54976;51.510;7.522;2024-01-16T17:36:20;13.55;;;5.38;;
58637;SDS011;54976;51.510;7.522;2024-01-16T17:39:20;12.52;;;5.35;;
58637;SDS011;54976;51.510;7.522;2024-01-16T17:42:25;14.97;;;5.27;;
58637;SDS011;54976;51.510;7.522;2024-01-16T17:45:25;18.85;;;5.25;;
58637;SDS011;54976;51.510;7.522;2024-01-16T17:48:26;13.63;;;5.78;;
58637;SDS011;54976;51.510;7.522;2024-01-16T17:51:29;10.23;;;5.15;;
58637;SDS011;54976;51.510;7.522;2024-01-16T17:54:30;17.30;;;7.75;;
58637;SDS011;54976;51.510;7.522;2024-01-16T17:57:31;18.23;;;5.95;;
58637;SDS011;54976;51.510;7.522;2024-01-16T18:00:31;14.93;;;5.72;;
58637;SDS011;54976;51.510;7.522;2024-01-16T18:03:32;15.23;;;6.05;;
58637;SDS011;54976;51.510;7.522;2024-01-16T18:06:33;46.50;;;23.02;;